Frankfort, KS

5:38 AM CDT on August 28, 2015 (GMT -0500)
MesoWest | | Change Station
CLOSE
Current Station
Personal Weather Station
Location: Frankfort, KS
Elevation: 1174 ft
Nearby Weather Stations

Elev 1174 ft 39.75 °N, 96.46 °W | Updated 6 days ago

Thunderstorm
Thunderstorm
70 °F
Feels Like 70 °F
N
13
Wind Variable Wind from SSW
Gusts 24 mph

Today
High -- | Low -- °F
--% Chance of Precip.
Yesterday
High -- | Low -- °F
Precip. -- in
6:49 AM 8:03 PM
Waxing Gibbous, 97% visible
Pressure 29.86 in
Visibility 10.0 miles
Clouds Overcast 10000 ft
Dew Point 68 °F
Humidity 93%
Rainfall in
Snow Depth Not available.
UV 0 out of 12
Pollen 10.40 out of 12
Air Quality Not available.
Flu Activity Not available.
METAR KMHK 280952Z AUTO VRB03KT 10SM OVC100 22/19 A2990 RMK AO2 RAE42 SLP112 P0004 T02170189 $
Pressure 29.86 in
Visibility 10.0 miles
Clouds Overcast 10000 ft
Dew Point 68 °F
Humidity 93%
Rainfall in
Snow Depth Not available.
UV 0 out of 12
Pollen 10.40 out of 12
Air Quality Not available.
Flu Activity Not available.
METAR KMHK 280952Z AUTO VRB03KT 10SM OVC100 22/19 A2990 RMK AO2 RAE42 SLP112 P0004 T02170189 $

10-Day Weather Forecast

×

Almanac

Astronomy

Aug. 28, 2015 Rise Set
Actual Time
Civil Twilight
Nautical Twilight
Astronomical Twilight
Moon
Length of Visible Light
Length of Day
Tomorrow will be .
, % of the Moon is Illuminated

Today's Extremes

State Highs State Lows

Community

WunderPhotos

Upload Photos

1,850,365 photos uploaded!

WunderBlogs® & News

Nearby

Air Quality

  Air Quality AQ Index Pollutant
Not available.

Snow Depth

Station Depth Elevation

Earthquake Activity

City Distance Mag. Time & Date
Minimum magnitude displayed is 2.5.

Coastal Water Temperatures

Place Temperature

Stations

Nearby Weather Stations

Station Location Temp. Windchill Dew Point Humidity Wind Precip. Elev Updated Type